Time,TemperatureF,DewpointF,PressureIn,WindDirection,WindDirectionDegrees,WindSpeedMPH,WindSpeedGustMPH,Humidity,HourlyPrecipIn,Conditions,Clouds,dailyrainin,SoftwareType,DateUTC
2014-01-13 00:01:00,36.9,32.5,30.11,West,268,1.0,5.0,84,0.00,,---,0.02,VWS V14.01,2014-01-13 05:01:00,
2014-01-13 00:06:00,37.2,32.5,30.11,SW,229,2.0,5.0,83,0.00,,---,0.00,VWS V14.01,2014-01-13 05:06:00,
2014-01-13 00:11:00,37.2,32.5,30.11,SW,226,1.0,5.0,83,0.00,,---,0.00,VWS V14.01,2014-01-13 05:11:00,
2014-01-13 00:16:00,37.0,32.3,30.12,SSW,199,2.0,5.0,83,0.00,,---,0.00,VWS V14.01,2014-01-13 05:16:00,
2014-01-13 00:21:00,36.7,32.3,30.12,SSW,213,0.0,5.0,84,0.00,,---,0.00,VWS V14.01,2014-01-13 05:21:00,
2014-01-13 00:26:00,36.4,32.3,30.12,SW,214,0.0,5.0,85,0.00,,---,0.00,VWS V14.01,2014-01-13 05:26:00,
2014-01-13 00:31:00,36.4,32.3,30.12,SW,219,3.0,3.0,85,0.00,,---,0.00,VWS V14.01,2014-01-13 05:31:00,
2014-01-13 00:36:00,36.6,32.2,30.12,South,187,1.0,3.0,84,0.00,,---,0.00,VWS V14.01,2014-01-13 05:36:00,
2014-01-13 00:41:00,36.9,32.2,30.12,SSE,161,0.0,4.0,83,0.00,,---,0.00,VWS V14.01,2014-01-13 05:41:00,
2014-01-13 00:46:00,37.3,32.0,30.12,SSW,208,3.0,4.0,81,0.00,,---,0.00,VWS V14.01,2014-01-13 05:46:00,
2014-01-13 00:51:00,37.7,32.1,30.12,SSW,212,1.0,4.0,80,0.00,,---,0.00,VWS V14.01,2014-01-13 05:51:00,
2014-01-13 00:56:00,37.9,32.0,30.13,WSW,240,2.0,4.0,79,0.00,,---,0.00,VWS V14.01,2014-01-13 05:56:00,
2014-01-13 01:01:00,38.1,31.9,30.13,SW,217,2.0,3.0,78,0.00,,---,0.00,VWS V14.01,2014-01-13 06:01:00,
2014-01-13 01:06:00,38.2,32.0,30.13,SSW,210,2.0,4.0,78,0.00,,---,0.00,VWS V14.01,2014-01-13 06:06:00,
2014-01-13 01:11:00,38.2,32.0,30.13,South,177,1.0,4.0,78,0.00,,---,0.00,VWS V14.01,2014-01-13 06:11:00,
2014-01-13 01:16:00,38.1,31.9,30.13,SW,219,0.0,4.0,78,0.00,,---,0.00,VWS V14.01,2014-01-13 06:16:00,
2014-01-13 01:21:00,38.3,32.4,30.13,WSW,258,2.0,4.0,79,0.00,,---,0.00,VWS V14.01,2014-01-13 06:21:00,
2014-01-13 01:26:00,38.2,32.0,30.12,WNW,289,0.0,4.0,78,0.00,,---,0.00,VWS V14.01,2014-01-13 06:26:00,
2014-01-13 01:31:00,37.7,31.8,30.12,WNW,290,0.0,1.0,79,0.00,,---,0.00,VWS V14.01,2014-01-13 06:31:00,
2014-01-13 01:36:00,37.4,32.1,30.12,WNW,290,0.0,1.0,81,0.00,,---,0.00,VWS V14.01,2014-01-13 06:36:00,
2014-01-13 01:42:00,37.1,32.1,30.12,WNW,290,0.0,1.0,82,0.00,,---,0.00,VWS V14.01,2014-01-13 06:42:00,
2014-01-13 01:46:00,36.9,31.9,30.12,WNW,290,0.0,1.0,82,0.00,,---,0.00,VWS V14.01,2014-01-13 06:46:00,
2014-01-13 01:52:00,36.8,32.4,30.12,WNW,290,0.0,1.0,84,0.00,,---,0.00,VWS V14.01,2014-01-13 06:52:00,
2014-01-13 01:57:00,36.9,32.5,30.12,WNW,290,0.0,1.0,84,0.00,,---,0.00,VWS V14.01,2014-01-13 06:57:00,
2014-01-13 02:02:00,37.0,32.9,30.13,WNW,290,0.0,0.0,85,0.00,,---,0.00,VWS V14.01,2014-01-13 07:02:00,
2014-01-13 02:07:00,37.0,33.5,30.12,WSW,251,0.0,0.0,87,0.00,,---,0.00,VWS V14.01,2014-01-13 07:07:00,
2014-01-13 02:12:00,37.0,34.3,30.13,South,185,0.0,0.0,90,0.00,,---,0.00,VWS V14.01,2014-01-13 07:12:00,
2014-01-13 02:17:00,37.2,34.8,30.13,SE,126,0.0,1.0,91,0.00,,---,0.00,VWS V14.01,2014-01-13 07:17:00,
2014-01-13 02:22:00,36.9,34.8,30.13,SSE,153,0.0,1.0,92,0.00,,---,0.00,VWS V14.01,2014-01-13 07:22:00,
2014-01-13 02:27:00,36.7,34.6,30.13,SSE,160,0.0,1.0,92,0.00,,---,0.00,VWS V14.01,2014-01-13 07:27:00,
2014-01-13 02:32:00,36.6,34.0,30.13,SSE,160,0.0,0.0,90,0.00,,---,0.00,VWS V14.01,2014-01-13 07:32:00,
2014-01-13 02:37:00,36.5,34.1,30.13,SSW,194,0.0,0.0,91,0.00,,---,0.00,VWS V14.01,2014-01-13 07:37:00,
2014-01-13 02:42:00,36.5,34.1,30.12,SW,216,0.0,1.0,91,0.00,,---,0.00,VWS V14.01,2014-01-13 07:42:00,
2014-01-13 02:47:00,36.4,34.0,30.13,SSW,199,0.0,1.0,91,0.00,,---,0.00,VWS V14.01,2014-01-13 07:47:00,
2014-01-13 02:52:00,36.4,34.3,30.12,SSE,155,0.0,1.0,92,0.00,,---,0.00,VWS V14.01,2014-01-13 07:52:00,
2014-01-13 02:57:00,36.6,34.8,30.13,SE,139,0.0,1.0,93,0.00,,---,0.00,VWS V14.01,2014-01-13 07:57:00,
2014-01-13 03:02:00,36.6,34.8,30.13,SE,140,1.0,1.0,93,0.00,,---,0.00,VWS V14.01,2014-01-13 08:02:00,
2014-01-13 03:07:00,36.7,35.1,30.13,SE,132,1.0,1.0,94,0.00,,---,0.00,VWS V14.01,2014-01-13 08:07:00,
2014-01-13 03:12:00,37.0,35.4,30.12,SSE,155,0.0,2.0,94,0.00,,---,0.00,VWS V14.01,2014-01-13 08:12:00,
2014-01-13 03:17:00,36.9,35.3,30.13,South,186,0.0,2.0,94,0.00,,---,0.00,VWS V14.01,2014-01-13 08:17:00,
2014-01-13 03:22:00,36.8,35.2,30.13,SW,223,1.0,3.0,94,0.00,,---,0.00,VWS V14.01,2014-01-13 08:22:00,
2014-01-13 03:27:00,36.8,35.2,30.13,SSE,162,1.0,3.0,94,0.00,,---,0.00,VWS V14.01,2014-01-13 08:27:00,
2014-01-13 03:32:00,36.9,35.3,30.13,SW,222,1.0,1.0,94,0.00,,---,0.00,VWS V14.01,2014-01-13 08:32:00,
2014-01-13 03:37:00,37.1,35.5,30.13,SSW,193,0.0,2.0,94,0.00,,---,0.00,VWS V14.01,2014-01-13 08:37:00,
2014-01-13 03:42:00,37.3,35.7,30.13,South,188,1.0,2.0,94,0.00,,---,0.00,VWS V14.01,2014-01-13 08:42:00,
2014-01-13 03:47:00,37.5,35.9,30.12,SW,223,2.0,3.0,94,0.00,,---,0.00,VWS V14.01,2014-01-13 08:47:00,
2014-01-13 03:52:00,37.8,36.2,30.12,South,173,1.0,3.0,94,0.00,,---,0.00,VWS V14.01,2014-01-13 08:52:00,
2014-01-13 03:57:00,37.8,36.2,30.12,SSW,196,0.0,3.0,94,0.00,,---,0.00,VWS V14.01,2014-01-13 08:57:00,
2014-01-13 04:02:00,37.7,36.1,30.13,SSW,200,1.0,2.0,94,0.00,,---,0.00,VWS V14.01,2014-01-13 09:02:00,
2014-01-13 04:07:00,37.9,36.3,30.12,SE,143,2.0,2.0,94,0.00,,---,0.00,VWS V14.01,2014-01-13 09:07:00,
2014-01-13 04:12:00,38.0,36.4,30.12,SSE,150,2.0,3.0,94,0.00,,---,0.00,VWS V14.01,2014-01-13 09:12:00,
2014-01-13 04:17:00,38.0,36.7,30.12,SE,132,2.0,3.0,95,0.00,,---,0.00,VWS V14.01,2014-01-13 09:17:00,
2014-01-13 04:22:00,38.3,37.0,30.12,SE,135,2.0,3.0,95,0.00,,---,0.00,VWS V14.01,2014-01-13 09:22:00,
2014-01-13 04:27:00,38.4,37.1,30.12,SE,135,2.0,3.0,95,0.00,,---,0.00,VWS V14.01,2014-01-13 09:27:00,
2014-01-13 04:32:00,38.6,37.3,30.12,SE,131,0.0,3.0,95,0.00,,---,0.00,VWS V14.01,2014-01-13 09:32:00,
2014-01-13 04:37:00,38.5,36.9,30.12,SE,137,2.0,3.0,94,0.00,,---,0.00,VWS V14.01,2014-01-13 09:37:00,
2014-01-13 04:42:00,38.5,36.9,30.12,SE,129,0.0,3.0,94,0.00,,---,0.00,VWS V14.01,2014-01-13 09:42:00,
2014-01-13 04:47:00,38.5,37.2,30.12,SE,135,0.0,3.0,95,0.00,,---,0.00,VWS V14.01,2014-01-13 09:47:00,
2014-01-13 04:52:00,38.6,37.3,30.13,SE,129,3.0,4.0,95,0.00,,---,0.00,VWS V14.01,2014-01-13 09:52:00,
2014-01-13 04:57:00,38.6,37.3,30.13,SE,135,2.0,4.0,95,0.00,,---,0.00,VWS V14.01,2014-01-13 09:57:00,
2014-01-13 05:02:00,38.6,37.3,30.13,SE,134,2.0,2.0,95,0.00,,---,0.00,VWS V14.01,2014-01-13 10:02:00,
2014-01-13 05:07:00,38.7,37.4,30.13,SE,129,1.0,2.0,95,0.00,,---,0.00,VWS V14.01,2014-01-13 10:07:00,
2014-01-13 05:12:00,38.6,37.3,30.13,SSE,150,1.0,2.0,95,0.00,,---,0.00,VWS V14.01,2014-01-13 10:12:00,
2014-01-13 05:17:00,38.6,37.3,30.13,SE,136,0.0,2.0,95,0.00,,---,0.00,VWS V14.01,2014-01-13 10:17:00,
2014-01-13 05:22:00,38.5,37.2,30.13,SE,129,0.0,2.0,95,0.00,,---,0.00,VWS V14.01,2014-01-13 10:22:00,
2014-01-13 05:27:00,38.6,37.3,30.13,SE,124,1.0,3.0,95,0.00,,---,0.00,VWS V14.01,2014-01-13 10:27:00,
2014-01-13 05:32:00,38.7,37.7,30.13,ESE,122,2.0,3.0,96,0.00,,---,0.00,VWS V14.01,2014-01-13 10:32:00,
2014-01-13 05:37:00,38.7,37.7,30.13,SE,144,0.0,3.0,96,0.00,,---,0.00,VWS V14.01,2014-01-13 10:37:00,
2014-01-13 05:42:00,38.7,37.4,30.13,ESE,114,0.0,3.0,95,0.00,,---,0.00,VWS V14.01,2014-01-13 10:42:00,
2014-01-13 05:47:00,38.5,37.2,30.12,NE,54,0.0,3.0,95,0.00,,---,0.00,VWS V14.01,2014-01-13 10:47:00,
2014-01-13 05:52:00,38.5,37.5,30.12,SE,136,0.0,3.0,96,0.00,,---,0.00,VWS V14.01,2014-01-13 10:52:00,
2014-01-13 05:57:00,38.5,37.5,30.12,SE,136,1.0,3.0,96,0.00,,---,0.00,VWS V14.01,2014-01-13 10:57:00,
2014-01-13 06:02:00,38.5,37.5,30.12,East,92,1.0,2.0,96,0.00,,---,0.00,VWS V14.01,2014-01-13 11:02:00,
2014-01-13 06:07:00,38.6,37.6,30.12,SSE,154,1.0,5.0,96,0.00,,---,0.00,VWS V14.01,2014-01-13 11:07:00,
2014-01-13 06:12:00,38.8,37.8,30.12,South,169,1.0,6.0,96,0.00,,---,0.00,VWS V14.01,2014-01-13 11:12:00,
2014-01-13 06:17:00,39.0,38.0,30.13,ESE,113,4.0,6.0,96,0.00,,---,0.00,VWS V14.01,2014-01-13 11:17:00,
2014-01-13 06:22:00,39.2,38.2,30.13,SE,146,1.0,6.0,96,0.00,,---,0.00,VWS V14.01,2014-01-13 11:22:00,
2014-01-13 06:28:00,39.3,38.3,30.13,ESE,122,5.0,6.0,96,0.00,,---,0.00,VWS V14.01,2014-01-13 11:28:00,
2014-01-13 06:33:00,39.4,38.4,30.14,ESE,122,4.0,5.0,96,0.00,,---,0.00,VWS V14.01,2014-01-13 11:33:00,
2014-01-13 06:38:00,39.3,38.3,30.15,ESE,121,1.0,5.0,96,0.00,,---,0.00,VWS V14.01,2014-01-13 11:38:00,
2014-01-13 06:43:00,39.2,38.2,30.15,South,186,1.0,5.0,96,0.00,,---,0.00,VWS V14.01,2014-01-13 11:43:00,
2014-01-13 06:48:00,39.0,38.0,30.15,SSE,166,1.0,5.0,96,0.00,,---,0.00,VWS V14.01,2014-01-13 11:48:00,
2014-01-13 06:53:00,39.0,38.0,30.13,SE,136,3.0,5.0,96,0.00,,---,0.00,VWS V14.01,2014-01-13 11:53:00,
2014-01-13 06:58:00,39.2,38.2,30.13,SSE,148,2.0,5.0,96,0.00,,---,0.00,VWS V14.01,2014-01-13 11:58:00,
2014-01-13 07:03:00,38.9,37.9,30.14,SE,138,1.0,3.0,96,0.00,,---,0.00,VWS V14.01,2014-01-13 12:03:00,
2014-01-13 07:08:00,38.9,37.9,30.13,SW,222,3.0,3.0,96,0.00,,---,0.00,VWS V14.01,2014-01-13 12:08:00,
2014-01-13 07:13:00,38.9,37.9,30.13,SSE,165,2.0,3.0,96,0.00,,---,0.00,VWS V14.01,2014-01-13 12:13:00,
2014-01-13 07:18:00,39.0,38.0,30.14,ESE,107,2.0,4.0,96,0.00,,---,0.00,VWS V14.01,2014-01-13 12:18:00,
2014-01-13 07:23:00,39.3,38.5,30.13,South,181,3.0,4.0,97,0.00,,---,0.00,VWS V14.01,2014-01-13 12:23:00,
2014-01-13 07:28:00,39.7,38.9,30.14,SSW,212,2.0,4.0,97,0.00,,---,0.00,VWS V14.01,2014-01-13 12:28:00,
2014-01-13 07:33:00,40.1,39.0,30.14,SE,130,3.0,6.0,96,0.00,,---,0.00,VWS V14.01,2014-01-13 12:33:00,
2014-01-13 07:38:00,40.6,39.5,30.14,SSE,156,2.0,6.0,96,0.00,,---,0.00,VWS V14.01,2014-01-13 12:38:00,
2014-01-13 07:43:00,41.0,39.7,30.15,SSE,158,2.0,6.0,95,0.00,,---,0.00,VWS V14.01,2014-01-13 12:43:00,
2014-01-13 07:48:00,41.2,39.9,30.15,SW,219,3.0,6.0,95,0.00,,---,0.00,VWS V14.01,2014-01-13 12:48:00,
2014-01-13 07:53:00,41.5,39.9,30.15,SSE,162,4.0,6.0,94,0.00,,---,0.00,VWS V14.01,2014-01-13 12:53:00,
2014-01-13 07:58:00,41.5,39.9,30.15,East,90,3.0,6.0,94,0.00,,---,0.00,VWS V14.01,2014-01-13 12:58:00,
2014-01-13 08:03:00,41.9,40.3,30.15,SSE,155,2.0,3.0,94,0.00,,---,0.00,VWS V14.01,2014-01-13 13:03:00,
2014-01-13 08:08:00,42.3,40.4,30.15,ENE,67,2.0,3.0,93,0.00,,---,0.00,VWS V14.01,2014-01-13 13:08:00,
2014-01-13 08:13:00,42.6,40.4,30.15,SSE,151,0.0,4.0,92,0.00,,---,0.00,VWS V14.01,2014-01-13 13:13:00,
2014-01-13 08:18:00,42.9,40.7,30.15,South,182,2.0,4.0,92,0.00,,---,0.00,VWS V14.01,2014-01-13 13:18:00,
2014-01-13 08:23:00,42.9,40.5,30.15,SSW,209,1.0,4.0,91,0.00,,---,0.00,VWS V14.01,2014-01-13 13:23:00,
2014-01-13 08:28:00,43.3,40.8,30.15,South,171,1.0,4.0,91,0.00,,---,0.00,VWS V14.01,2014-01-13 13:28:00,
2014-01-13 08:33:00,43.8,41.1,30.15,SSE,151,0.0,3.0,90,0.00,,---,0.00,VWS V14.01,2014-01-13 13:33:00,
2014-01-13 08:38:00,44.2,41.2,30.15,SW,221,0.0,3.0,89,0.00,,---,0.00,VWS V14.01,2014-01-13 13:38:00,
2014-01-13 08:43:00,44.5,41.2,30.15,South,169,2.0,5.0,88,0.00,,---,0.00,VWS V14.01,2014-01-13 13:43:00,
2014-01-13 08:48:00,44.4,41.1,30.15,South,181,2.0,5.0,88,0.00,,---,0.00,VWS V14.01,2014-01-13 13:48:00,
2014-01-13 08:53:00,44.6,41.3,30.15,SE,129,2.0,5.0,88,0.00,,---,0.00,VWS V14.01,2014-01-13 13:53:00,
2014-01-13 08:58:00,44.8,41.2,30.15,SSE,148,3.0,5.0,87,0.00,,---,0.00,VWS V14.01,2014-01-13 13:58:00,
2014-01-13 09:03:00,45.0,41.1,30.15,SW,221,2.0,4.0,86,0.00,,---,0.00,VWS V14.01,2014-01-13 14:03:00,
2014-01-13 09:08:00,45.2,41.3,30.15,SSE,167,4.0,5.0,86,0.00,,---,0.00,VWS V14.01,2014-01-13 14:08:00,
2014-01-13 09:13:00,45.2,41.0,30.15,WSW,257,5.0,5.0,85,0.00,,---,0.00,VWS V14.01,2014-01-13 14:13:00,
2014-01-13 09:18:00,45.2,41.0,30.15,WSW,252,3.0,7.0,85,0.00,,---,0.00,VWS V14.01,2014-01-13 14:18:00,
2014-01-13 09:23:00,45.3,40.8,30.15,South,172,2.0,7.0,84,0.00,,---,0.00,VWS V14.01,2014-01-13 14:23:00,
2014-01-13 09:28:00,45.5,41.0,30.15,SSW,193,2.0,7.0,84,0.00,,---,0.00,VWS V14.01,2014-01-13 14:28:00,
2014-01-13 09:33:00,45.8,40.9,30.15,WSW,249,1.0,5.0,83,0.00,,---,0.00,VWS V14.01,2014-01-13 14:33:00,
2014-01-13 09:38:00,46.1,41.2,30.15,SE,141,2.0,5.0,83,0.00,,---,0.00,VWS V14.01,2014-01-13 14:38:00,
2014-01-13 09:43:00,46.2,41.0,30.15,ENE,77,2.0,5.0,82,0.00,,---,0.00,VWS V14.01,2014-01-13 14:43:00,
2014-01-13 09:48:00,46.3,41.1,30.15,South,178,2.0,6.0,82,0.00,,---,0.00,VWS V14.01,2014-01-13 14:48:00,
2014-01-13 09:53:00,46.2,41.3,30.14,SW,224,3.0,7.0,83,0.00,,---,0.00,VWS V14.01,2014-01-13 14:53:00,
2014-01-13 09:58:00,46.1,41.2,30.14,SW,214,3.0,7.0,83,0.00,,---,0.00,VWS V14.01,2014-01-13 14:58:00,
2014-01-13 10:03:00,46.3,41.4,30.14,SSW,211,3.0,6.0,83,0.00,,---,0.00,VWS V14.01,2014-01-13 15:03:00,
2014-01-13 10:08:00,46.5,41.6,30.14,East,84,4.0,6.0,83,0.00,,---,0.00,VWS V14.01,2014-01-13 15:08:00,
2014-01-13 10:13:00,46.7,41.5,30.14,SW,235,4.0,6.0,82,0.00,,---,0.00,VWS V14.01,2014-01-13 15:13:00,
2014-01-13 10:18:00,46.9,41.7,30.14,SSW,212,3.0,6.0,82,0.00,,---,0.00,VWS V14.01,2014-01-13 15:18:00,
2014-01-13 10:23:00,46.9,41.4,30.14,SSW,204,4.0,10.0,81,0.00,,---,0.00,VWS V14.01,2014-01-13 15:23:00,
2014-01-13 10:28:00,46.7,41.5,30.14,SSW,205,8.0,10.0,82,0.00,,---,0.00,VWS V14.01,2014-01-13 15:28:00,
2014-01-13 10:33:00,46.8,41.6,30.14,WNW,288,2.0,8.0,82,0.00,,---,0.00,VWS V14.01,2014-01-13 15:33:00,
2014-01-13 10:38:00,46.9,41.7,30.13,ESE,102,6.0,9.0,82,0.00,,---,0.00,VWS V14.01,2014-01-13 15:38:00,
2014-01-13 10:43:00,47.1,41.9,30.13,ENE,69,3.0,9.0,82,0.00,,---,0.00,VWS V14.01,2014-01-13 15:43:00,
2014-01-13 10:48:00,47.2,41.7,30.13,South,183,6.0,12.0,81,0.00,,---,0.00,VWS V14.01,2014-01-13 15:48:00,
2014-01-13 10:53:00,47.3,41.8,30.12,WSW,255,3.0,12.0,81,0.00,,---,0.00,VWS V14.01,2014-01-13 15:53:00,
2014-01-13 10:59:00,47.3,41.8,30.12,South,186,4.0,12.0,81,0.00,,---,0.00,VWS V14.01,2014-01-13 15:59:00,
2014-01-13 11:03:00,47.2,41.7,30.12,SSW,213,2.0,7.0,81,0.00,,---,0.00,VWS V14.01,2014-01-13 16:03:00,
2014-01-13 11:09:00,47.1,41.6,30.11,SSW,213,3.0,8.0,81,0.00,,---,0.00,VWS V14.01,2014-01-13 16:09:00,
2014-01-13 11:14:00,47.5,42.0,30.11,West,276,3.0,8.0,81,0.00,,---,0.00,VWS V14.01,2014-01-13 16:14:00,
2014-01-13 11:18:00,47.9,42.4,30.11,SW,215,4.0,8.0,81,0.00,,---,0.00,VWS V14.01,2014-01-13 16:18:00,
2014-01-13 11:24:00,48.0,42.1,30.11,South,191,2.0,8.0,80,0.00,,---,0.00,VWS V14.01,2014-01-13 16:24:00,
2014-01-13 11:29:00,47.8,41.9,30.10,West,266,3.0,8.0,80,0.00,,---,0.00,VWS V14.01,2014-01-13 16:29:00,
2014-01-13 11:34:00,47.7,41.8,30.10,SW,217,4.0,7.0,80,0.00,,---,0.00,VWS V14.01,2014-01-13 16:34:00,
2014-01-13 11:39:00,47.8,42.3,30.09,East,84,3.0,7.0,81,0.00,,---,0.00,VWS V14.01,2014-01-13 16:39:00,
2014-01-13 11:44:00,48.0,42.5,30.08,ESE,105,3.0,7.0,81,0.00,,---,0.00,VWS V14.01,2014-01-13 16:44:00,
2014-01-13 11:49:00,48.2,42.3,30.08,South,181,4.0,7.0,80,0.00,,---,0.00,VWS V14.01,2014-01-13 16:49:00,
2014-01-13 11:54:00,48.0,42.1,30.08,SW,223,6.0,8.0,80,0.00,,---,0.00,VWS V14.01,2014-01-13 16:54:00,
2014-01-13 11:59:00,47.6,42.1,30.08,SSE,158,3.0,9.0,81,0.00,,---,0.00,VWS V14.01,2014-01-13 16:59:00,
2014-01-13 12:04:00,47.5,42.0,30.08,WSW,237,7.0,10.0,81,0.00,,---,0.00,VWS V14.01,2014-01-13 17:04:00,
2014-01-13 12:09:00,47.4,41.9,30.08,SSW,208,5.0,10.0,81,0.00,,---,0.00,VWS V14.01,2014-01-13 17:09:00,
2014-01-13 12:14:00,47.2,42.0,30.08,East,82,7.0,10.0,82,0.00,,---,0.00,VWS V14.01,2014-01-13 17:14:00,
2014-01-13 12:19:00,47.1,41.9,30.08,ESE,117,7.0,10.0,82,0.00,,---,0.00,VWS V14.01,2014-01-13 17:19:00,
2014-01-13 12:24:00,47.0,42.1,30.07,SE,140,2.0,10.0,83,0.00,,---,0.00,VWS V14.01,2014-01-13 17:24:00,
2014-01-13 12:29:00,46.6,41.7,30.07,SSW,200,4.0,10.0,83,0.00,,---,0.00,VWS V14.01,2014-01-13 17:29:00,
2014-01-13 12:34:00,45.9,41.3,30.07,SSE,166,3.0,9.0,84,0.00,,---,0.00,VWS V14.01,2014-01-13 17:34:00,
2014-01-13 12:39:00,45.2,41.3,30.06,SSW,205,3.0,9.0,86,0.00,,---,0.00,VWS V14.01,2014-01-13 17:39:00,
2014-01-13 12:44:00,45.1,41.5,30.06,North,4,7.0,10.0,87,0.00,,---,0.00,VWS V14.01,2014-01-13 17:44:00,
2014-01-13 12:49:00,46.0,42.0,30.06,East,89,7.0,10.0,86,0.00,,---,0.00,VWS V14.01,2014-01-13 17:49:00,
2014-01-13 12:54:00,46.3,42.0,30.06,WNW,288,3.0,10.0,85,0.00,,---,0.00,VWS V14.01,2014-01-13 17:54:00,
2014-01-13 12:59:00,46.6,42.3,30.05,SW,223,4.0,10.0,85,0.00,,---,0.00,VWS V14.01,2014-01-13 17:59:00,
2014-01-13 13:04:00,46.4,42.1,30.05,NE,50,4.0,8.0,85,0.00,,---,0.00,VWS V14.01,2014-01-13 18:04:00,
2014-01-13 13:09:00,46.7,42.4,30.05,ESE,110,1.0,8.0,85,0.00,,---,0.00,VWS V14.01,2014-01-13 18:09:00,
2014-01-13 13:14:00,47.3,43.0,30.05,SSE,153,2.0,8.0,85,0.00,,---,0.00,VWS V14.01,2014-01-13 18:14:00,
2014-01-13 13:19:00,47.6,43.0,30.05,SSW,207,2.0,8.0,84,0.00,,---,0.00,VWS V14.01,2014-01-13 18:19:00,
2014-01-13 13:24:00,47.6,43.0,30.04,SSW,212,2.0,8.0,84,0.00,,---,0.00,VWS V14.01,2014-01-13 18:24:00,
2014-01-13 13:29:00,47.7,42.8,30.04,SW,229,0.0,8.0,83,0.00,,---,0.00,VWS V14.01,2014-01-13 18:29:00,
2014-01-13 13:34:00,47.3,42.4,30.04,South,173,4.0,4.0,83,0.00,,---,0.00,VWS V14.01,2014-01-13 18:34:00,
2014-01-13 13:39:00,46.9,42.3,30.04,SE,141,2.0,4.0,84,0.00,,---,0.00,VWS V14.01,2014-01-13 18:39:00,
2014-01-13 13:44:00,47.5,42.9,30.03,WSW,240,1.0,5.0,84,0.00,,---,0.00,VWS V14.01,2014-01-13 18:44:00,
2014-01-13 13:49:00,48.0,42.8,30.03,SSW,206,2.0,5.0,82,0.00,,---,0.00,VWS V14.01,2014-01-13 18:49:00,
2014-01-13 13:54:00,48.4,43.5,30.03,South,171,3.0,5.0,83,0.00,,---,0.00,VWS V14.01,2014-01-13 18:54:00,
2014-01-13 13:59:00,48.0,42.8,30.03,SSW,196,4.0,7.0,82,0.00,,---,0.00,VWS V14.01,2014-01-13 18:59:00,
2014-01-13 14:04:00,47.9,43.0,30.02,NNE,24,3.0,5.0,83,0.00,,---,0.00,VWS V14.01,2014-01-13 19:04:00,
2014-01-13 14:09:00,47.9,42.7,30.02,WSW,237,3.0,7.0,82,0.00,,---,0.00,VWS V14.01,2014-01-13 19:09:00,
2014-01-13 14:14:00,47.6,42.7,30.02,NE,34,4.0,9.0,83,0.00,,---,0.00,VWS V14.01,2014-01-13 19:14:00,
2014-01-13 14:19:00,47.5,42.6,30.02,SSE,155,7.0,9.0,83,0.00,,---,0.00,VWS V14.01,2014-01-13 19:19:00,
2014-01-13 14:24:00,47.2,42.3,30.01,WSW,257,3.0,9.0,83,0.00,,---,0.00,VWS V14.01,2014-01-13 19:24:00,
2014-01-13 14:29:00,47.1,42.5,30.02,West,260,5.0,9.0,84,0.00,,---,0.00,VWS V14.01,2014-01-13 19:29:00,
2014-01-13 14:34:00,47.0,42.4,30.02,SW,217,5.0,8.0,84,0.00,,---,0.00,VWS V14.01,2014-01-13 19:34:00,
2014-01-13 14:39:00,46.8,42.2,30.02,SSE,150,6.0,8.0,84,0.00,,---,0.00,VWS V14.01,2014-01-13 19:39:00,
2014-01-13 14:44:00,46.4,42.1,30.02,SSE,158,7.0,8.0,85,0.00,,---,0.00,VWS V14.01,2014-01-13 19:44:00,
2014-01-13 14:49:00,46.2,42.0,30.02,South,172,6.0,10.0,85,0.00,,---,0.00,VWS V14.01,2014-01-13 19:49:00,
2014-01-13 14:54:00,45.9,41.7,30.02,SSW,210,5.0,10.0,85,0.00,,---,0.00,VWS V14.01,2014-01-13 19:54:00,
2014-01-13 14:59:00,45.7,41.8,30.02,WNW,285,7.0,10.0,86,0.00,,---,0.00,VWS V14.01,2014-01-13 19:59:00,
2014-01-13 15:04:00,45.5,41.6,30.02,SW,229,4.0,9.0,86,0.00,,---,0.00,VWS V14.01,2014-01-13 20:04:00,
2014-01-13 15:09:00,45.5,41.6,30.02,WSW,243,6.0,11.0,86,0.00,,---,0.00,VWS V14.01,2014-01-13 20:09:00,
2014-01-13 15:14:00,45.7,41.8,30.02,ESE,122,7.0,12.0,86,0.00,,---,0.00,VWS V14.01,2014-01-13 20:14:00,
2014-01-13 15:19:00,45.7,41.8,30.02,SW,226,8.0,12.0,86,0.00,,---,0.00,VWS V14.01,2014-01-13 20:19:00,
2014-01-13 15:24:00,45.9,41.7,30.02,SE,145,7.0,12.0,85,0.00,,---,0.00,VWS V14.01,2014-01-13 20:24:00,
2014-01-13 15:29:00,46.0,41.8,30.02,SE,139,6.0,12.0,85,0.00,,---,0.00,VWS V14.01,2014-01-13 20:29:00,
2014-01-13 15:34:00,46.0,41.8,30.02,East,97,7.0,14.0,85,0.00,,---,0.00,VWS V14.01,2014-01-13 20:34:00,
2014-01-13 15:39:00,45.9,41.7,30.01,SE,146,7.0,14.0,85,0.00,,---,0.00,VWS V14.01,2014-01-13 20:39:00,
2014-01-13 15:44:00,45.7,41.5,30.02,NE,40,6.0,14.0,85,0.00,,---,0.00,VWS V14.01,2014-01-13 20:44:00,
2014-01-13 15:49:00,45.4,41.5,30.01,North,2,8.0,14.0,86,0.00,,---,0.00,VWS V14.01,2014-01-13 20:49:00,
2014-01-13 15:54:00,45.3,41.4,30.01,SSW,209,8.0,14.0,86,0.00,,---,0.00,VWS V14.01,2014-01-13 20:54:00,
2014-01-13 15:59:00,45.2,41.3,30.01,South,175,9.0,14.0,86,0.00,,---,0.00,VWS V14.01,2014-01-13 20:59:00,
2014-01-13 16:04:00,44.9,41.3,30.01,WNW,292,4.0,10.0,87,0.00,,---,0.00,VWS V14.01,2014-01-13 21:04:00,
2014-01-13 16:09:00,44.9,41.3,30.01,East,92,9.0,10.0,87,0.00,,---,0.00,VWS V14.01,2014-01-13 21:09:00,
2014-01-13 16:10:00,44.9,41.3,30.01,ESE,122,11.0,11.0,87,0.00,,---,0.00,VWS V14.01,2014-01-13 21:10:00,
2014-01-13 16:15:00,44.7,41.4,30.00,NE,41,9.0,12.0,88,0.00,,---,0.00,VWS V14.01,2014-01-13 21:15:00,
2014-01-13 16:20:00,44.5,41.2,30.00,SSE,165,7.0,12.0,88,0.00,,---,0.00,VWS V14.01,2014-01-13 21:20:00,
2014-01-13 16:25:00,44.3,41.0,30.00,WNW,302,5.0,12.0,88,0.00,,---,0.00,VWS V14.01,2014-01-13 21:25:00,
2014-01-13 16:30:00,44.2,41.2,30.00,WSW,250,7.0,12.0,89,0.00,,---,0.00,VWS V14.01,2014-01-13 21:30:00,
2014-01-13 16:35:00,44.1,41.1,30.00,WSW,248,5.0,12.0,89,0.00,,---,0.00,VWS V14.01,2014-01-13 21:35:00,
2014-01-13 16:40:00,43.9,40.9,30.00,ESE,120,10.0,12.0,89,0.00,,---,0.00,VWS V14.01,2014-01-13 21:40:00,
2014-01-13 16:45:00,43.8,41.1,30.00,SSW,192,6.0,12.0,90,0.00,,---,0.00,VWS V14.01,2014-01-13 21:45:00,
2014-01-13 16:50:00,43.6,40.9,30.00,SE,141,6.0,12.0,90,0.00,,---,0.00,VWS V14.01,2014-01-13 21:50:00,
2014-01-13 16:55:00,43.5,40.8,30.00,SSE,150,5.0,12.0,90,0.00,,---,0.00,VWS V14.01,2014-01-13 21:55:00,
2014-01-13 17:00:00,43.5,40.8,29.99,North,4,9.0,12.0,90,0.00,,---,0.00,VWS V14.01,2014-01-13 22:00:00,
2014-01-13 17:05:00,43.6,40.6,29.99,SSE,165,8.0,11.0,89,0.00,,---,0.00,VWS V14.01,2014-01-13 22:05:00,
2014-01-13 17:10:00,43.8,40.8,29.99,WSW,249,8.0,12.0,89,0.00,,---,0.00,VWS V14.01,2014-01-13 22:10:00,
2014-01-13 17:15:00,44.0,40.7,29.99,South,182,10.0,12.0,88,0.00,,---,0.00,VWS V14.01,2014-01-13 22:15:00,
2014-01-13 17:20:00,44.2,40.6,29.99,SSE,149,9.0,12.0,87,0.00,,---,0.00,VWS V14.01,2014-01-13 22:20:00,
2014-01-13 17:25:00,44.2,40.6,30.00,South,173,6.0,12.0,87,0.00,,---,0.00,VWS V14.01,2014-01-13 22:25:00,
2014-01-13 17:30:00,44.2,40.6,29.99,SE,131,9.0,13.0,87,0.00,,---,0.00,VWS V14.01,2014-01-13 22:30:00,
2014-01-13 17:35:00,44.1,40.5,29.99,WNW,296,7.0,12.0,87,0.00,,---,0.00,VWS V14.01,2014-01-13 22:35:00,
2014-01-13 17:40:00,44.0,40.4,30.00,SW,218,8.0,12.0,87,0.00,,---,0.00,VWS V14.01,2014-01-13 22:40:00,
2014-01-13 17:45:00,44.0,40.7,29.99,ESE,113,6.0,12.0,88,0.00,,---,0.00,VWS V14.01,2014-01-13 22:45:00,
2014-01-13 17:50:00,43.9,40.6,29.99,SW,219,8.0,12.0,88,0.00,,---,0.00,VWS V14.01,2014-01-13 22:50:00,
2014-01-13 17:55:00,43.8,40.5,29.99,SSE,151,4.0,12.0,88,0.00,,---,0.00,VWS V14.01,2014-01-13 22:55:00,
2014-01-13 18:00:00,43.7,40.7,30.00,ESE,118,7.0,12.0,89,0.00,,---,0.00,VWS V14.01,2014-01-13 23:00:00,
2014-01-13 18:05:00,43.8,40.8,30.00,WSW,250,7.0,9.0,89,0.00,,---,0.00,VWS V14.01,2014-01-13 23:05:00,
2014-01-13 18:10:00,43.8,40.8,29.99,WSW,243,6.0,9.0,89,0.00,,---,0.00,VWS V14.01,2014-01-13 23:10:00,
2014-01-13 18:15:00,43.8,40.8,29.99,WSW,248,6.0,9.0,89,0.00,,---,0.00,VWS V14.01,2014-01-13 23:15:00,
2014-01-13 18:20:00,43.7,40.7,29.99,SSW,198,6.0,10.0,89,0.00,,---,0.00,VWS V14.01,2014-01-13 23:20:00,
2014-01-13 18:25:00,43.7,40.7,29.99,SSE,161,4.0,10.0,89,0.00,,---,0.00,VWS V14.01,2014-01-13 23:25:00,
2014-01-13 18:30:00,43.5,40.8,29.99,South,186,4.0,10.0,90,0.00,,---,0.00,VWS V14.01,2014-01-13 23:30:00,
2014-01-13 18:35:00,43.4,40.7,29.99,SSW,196,4.0,10.0,90,0.00,,---,0.00,VWS V14.01,2014-01-13 23:35:00,
2014-01-13 18:40:00,43.4,40.7,29.99,SSW,205,10.0,11.0,90,0.00,,---,0.00,VWS V14.01,2014-01-13 23:40:00,
2014-01-13 18:45:00,43.2,40.5,29.99,WSW,238,5.0,11.0,90,0.00,,---,0.00,VWS V14.01,2014-01-13 23:45:00,
2014-01-13 18:50:00,42.9,40.2,29.99,West,281,2.0,11.0,90,0.00,,---,0.00,VWS V14.01,2014-01-13 23:50:00,
2014-01-13 18:55:00,42.7,40.3,29.99,WNW,290,4.0,11.0,91,0.00,,---,0.00,VWS V14.01,2014-01-13 23:55:00,
2014-01-13 19:00:00,42.7,40.3,29.99,West,270,4.0,11.0,91,0.00,,---,0.00,VWS V14.01,2014-01-14 00:00:00,
2014-01-13 19:05:00,42.5,40.1,29.98,SW,226,2.0,8.0,91,0.00,,---,0.00,VWS V14.01,2014-01-14 00:05:00,
2014-01-13 19:10:00,42.5,40.1,29.98,SE,140,3.0,8.0,91,0.00,,---,0.00,VWS V14.01,2014-01-14 00:10:00,
2014-01-13 19:15:00,42.3,40.2,29.98,SSE,151,2.0,8.0,92,0.00,,---,0.00,VWS V14.01,2014-01-14 00:15:00,
2014-01-13 19:20:00,42.2,40.0,29.98,ESE,120,7.0,8.0,92,0.00,,---,0.00,VWS V14.01,2014-01-14 00:20:00,
2014-01-13 19:25:00,42.0,39.8,29.98,SSW,207,3.0,8.0,92,0.00,,---,0.00,VWS V14.01,2014-01-14 00:25:00,
2014-01-13 19:31:00,42.0,39.8,29.97,WSW,241,4.0,8.0,92,0.00,,---,0.00,VWS V14.01,2014-01-14 00:31:00,
2014-01-13 19:36:00,41.8,39.9,29.97,SSW,204,2.0,7.0,93,0.00,,---,0.00,VWS V14.01,2014-01-14 00:36:00,
2014-01-13 19:41:00,41.7,39.8,29.97,West,273,1.0,7.0,93,0.00,,---,0.00,VWS V14.01,2014-01-14 00:41:00,
2014-01-13 19:46:00,41.8,39.9,29.97,SW,228,4.0,8.0,93,0.00,,---,0.00,VWS V14.01,2014-01-14 00:46:00,
2014-01-13 19:51:00,41.9,40.0,29.97,SW,231,3.0,8.0,93,0.00,,---,0.00,VWS V14.01,2014-01-14 00:51:00,
2014-01-13 19:56:00,41.9,40.0,29.97,NE,34,2.0,8.0,93,0.00,,---,0.00,VWS V14.01,2014-01-14 00:56:00,
2014-01-13 20:01:00,41.8,39.9,29.96,SE,145,3.0,8.0,93,0.00,,---,0.00,VWS V14.01,2014-01-14 01:01:00,
2014-01-13 20:06:00,41.9,40.3,29.97,NE,48,5.0,6.0,94,0.00,,---,0.00,VWS V14.01,2014-01-14 01:06:00,
2014-01-13 20:11:00,42.1,40.2,29.97,SE,136,2.0,8.0,93,0.00,,---,0.00,VWS V14.01,2014-01-14 01:11:00,
2014-01-13 20:16:00,42.2,40.3,29.97,SSW,203,1.0,8.0,93,0.00,,---,0.00,VWS V14.01,2014-01-14 01:16:00,
2014-01-13 20:21:00,42.5,40.6,29.97,SE,146,5.0,9.0,93,0.00,,---,0.00,VWS V14.01,2014-01-14 01:21:00,
2014-01-13 20:26:00,42.4,40.5,29.97,SE,140,3.0,9.0,93,0.00,,---,0.00,VWS V14.01,2014-01-14 01:26:00,
2014-01-13 20:31:00,42.1,40.2,29.97,NE,35,3.0,3.0,93,0.00,,---,0.00,VWS V14.01,2014-01-14 01:31:00,
2014-01-13 20:36:00,42.0,40.1,29.97,WSW,246,2.0,5.0,93,0.00,,---,0.00,VWS V14.01,2014-01-14 01:36:00,
2014-01-13 20:41:00,41.9,40.0,29.97,NNE,29,3.0,8.0,93,0.00,,---,0.00,VWS V14.01,2014-01-14 01:41:00,
2014-01-13 20:46:00,41.9,40.3,29.97,ESE,118,3.0,8.0,94,0.00,,---,0.00,VWS V14.01,2014-01-14 01:46:00,
2014-01-13 20:51:00,41.8,40.2,29.96,South,172,1.0,8.0,94,0.00,,---,0.00,VWS V14.01,2014-01-14 01:51:00,
2014-01-13 20:56:00,41.7,40.1,29.96,South,175,2.0,8.0,94,0.00,,---,0.00,VWS V14.01,2014-01-14 01:56:00,
2014-01-13 21:01:00,41.7,40.1,29.96,SSW,205,2.0,4.0,94,0.00,,---,0.00,VWS V14.01,2014-01-14 02:01:00,
2014-01-13 21:06:00,41.6,40.0,29.95,East,96,3.0,5.0,94,0.00,,---,0.00,VWS V14.01,2014-01-14 02:06:00,
2014-01-13 21:11:00,41.7,40.1,29.95,SSW,207,3.0,5.0,94,0.00,,---,0.00,VWS V14.01,2014-01-14 02:11:00,
2014-01-13 21:16:00,41.6,40.0,29.95,West,264,1.0,5.0,94,0.00,,---,0.00,VWS V14.01,2014-01-14 02:16:00,
2014-01-13 21:21:00,41.6,40.0,29.95,SE,131,2.0,6.0,94,0.00,,---,0.00,VWS V14.01,2014-01-14 02:21:00,
2014-01-13 21:26:00,41.5,39.9,29.95,SW,217,3.0,6.0,94,0.00,,---,0.00,VWS V14.01,2014-01-14 02:26:00,
2014-01-13 21:31:00,41.4,39.8,29.96,WSW,238,1.0,2.0,94,0.00,,---,0.00,VWS V14.01,2014-01-14 02:31:00,
2014-01-13 21:36:00,41.3,40.0,29.96,SSW,211,5.0,5.0,95,0.00,,---,0.00,VWS V14.01,2014-01-14 02:36:00,
2014-01-13 21:41:00,41.4,40.1,29.96,SSW,194,3.0,7.0,95,0.00,,---,0.00,VWS V14.01,2014-01-14 02:41:00,
2014-01-13 21:46:00,41.4,40.1,29.96,WSW,251,4.0,7.0,95,0.00,,---,0.00,VWS V14.01,2014-01-14 02:46:00,
2014-01-13 21:51:00,41.4,40.1,29.96,West,259,3.0,7.0,95,0.00,,---,0.00,VWS V14.01,2014-01-14 02:51:00,
2014-01-13 21:56:00,41.5,40.2,29.96,WSW,242,2.0,7.0,95,0.00,,---,0.00,VWS V14.01,2014-01-14 02:56:00,
2014-01-13 22:01:00,41.5,40.2,29.96,SW,217,2.0,4.0,95,0.00,,---,0.00,VWS V14.01,2014-01-14 03:01:00,
2014-01-13 22:06:00,41.7,40.4,29.96,SSW,207,4.0,7.0,95,0.00,,---,0.00,VWS V14.01,2014-01-14 03:06:00,
2014-01-13 22:11:00,41.7,40.4,29.96,SSW,202,1.0,7.0,95,0.00,,---,0.00,VWS V14.01,2014-01-14 03:11:00,
2014-01-13 22:16:00,41.7,40.4,29.96,South,188,4.0,7.0,95,0.00,,---,0.00,VWS V14.01,2014-01-14 03:16:00,
2014-01-13 22:21:00,41.8,40.5,29.96,East,87,4.0,7.0,95,0.00,,---,0.00,VWS V14.01,2014-01-14 03:21:00,
2014-01-13 22:26:00,41.8,40.5,29.96,SW,225,3.0,7.0,95,0.00,,---,0.00,VWS V14.01,2014-01-14 03:26:00,
2014-01-13 22:31:00,41.8,40.5,29.95,NE,38,6.0,6.0,95,0.00,,---,0.00,VWS V14.01,2014-01-14 03:31:00,
2014-01-13 22:36:00,41.7,40.4,29.95,South,187,5.0,6.0,95,0.00,,---,0.00,VWS V14.01,2014-01-14 03:36:00,
2014-01-13 22:41:00,41.7,40.7,29.95,SSW,194,4.0,8.0,96,0.00,,---,0.00,VWS V14.01,2014-01-14 03:41:00,
2014-01-13 22:46:00,41.8,40.8,29.94,NE,46,3.0,8.0,96,0.00,,---,0.00,VWS V14.01,2014-01-14 03:46:00,
2014-01-13 22:51:00,41.9,40.8,29.94,SSW,202,6.0,8.0,96,0.00,,---,0.00,VWS V14.01,2014-01-14 03:51:00,
2014-01-13 22:56:00,41.9,40.8,29.93,WSW,252,4.0,8.0,96,0.00,,---,0.00,VWS V14.01,2014-01-14 03:56:00,
2014-01-13 23:01:00,42.0,40.9,29.93,SSW,210,3.0,6.0,96,0.00,,---,0.00,VWS V14.01,2014-01-14 04:01:00,
2014-01-13 23:07:00,42.1,41.0,29.93,SE,130,3.0,8.0,96,0.00,,---,0.00,VWS V14.01,2014-01-14 04:07:00,
2014-01-13 23:12:00,42.2,41.1,29.93,NNE,17,5.0,8.0,96,0.00,,---,0.00,VWS V14.01,2014-01-14 04:12:00,
2014-01-13 23:17:00,42.2,41.1,29.92,SW,223,3.0,8.0,96,0.00,,---,0.00,VWS V14.01,2014-01-14 04:17:00,
2014-01-13 23:22:00,42.4,41.3,29.92,SSW,200,4.0,8.0,96,0.00,,---,0.00,VWS V14.01,2014-01-14 04:22:00,
2014-01-13 23:27:00,42.6,41.5,29.92,SSW,212,2.0,8.0,96,0.00,,---,0.00,VWS V14.01,2014-01-14 04:27:00,
2014-01-13 23:32:00,42.8,41.7,29.92,SSW,197,5.0,7.0,96,0.00,,---,0.00,VWS V14.01,2014-01-14 04:32:00,
2014-01-13 23:37:00,43.0,41.9,29.92,NE,53,7.0,9.0,96,0.00,,---,0.00,VWS V14.01,2014-01-14 04:37:00,
2014-01-13 23:42:00,43.1,42.0,29.92,ENE,58,5.0,9.0,96,0.00,,---,0.00,VWS V14.01,2014-01-14 04:42:00,
2014-01-13 23:47:00,43.3,42.2,29.92,SW,218,2.0,11.0,96,0.00,,---,0.00,VWS V14.01,2014-01-14 04:47:00,
2014-01-13 23:52:00,43.2,42.1,29.92,WSW,237,4.0,11.0,96,0.00,,---,0.00,VWS V14.01,2014-01-14 04:52:00,
2014-01-13 23:57:00,43.3,42.2,29.91,West,261,7.0,11.0,96,0.00,,---,0.00,VWS V14.01,2014-01-14 04:57:00,